Corwith Cramer — WTF3319 — position and weather

sailwx.info

Track history (hours):
 
Tides and Currents Weather Stations Pressure Air Temp Water Temp Dewpoint Dewpoint Depression Visibility Wind Speed Wind Dir Waves Ship Positions

Oceanographic research ship Corwith Cramer (USA)

Ship's website: http://www.sea.edu/sea2000/AboutSEA2000/cramer.htm

Detailed information on ship capabilities available from University of Delaware's Ocean Information Center.

Owner: SEA EDUCATION ASSOCIATION, WOODS HOLE, MA. More information available from US FCC via Universal Licensing System and Coast Guard Vessel Documentation Center.

Last reported at 2017-Jun-11 17:22 UTC. Time now 2017-Jul-23 16:28 UTC.
Position N 44°15' W 068°59'.
Warning: this ship's position is 41 days out of date.

Type: Sailing vessel. MMSI: 366724450.

Date/timePositionNaut miles runAvg speedWind from/ knotsBaromVisibWave heightAir tempDewpointWater temp
2017-Jun-11 17:22N 44°15' W 068°59'5 7.1
2017-Jun-11 16:36N 44°10' W 069°00'1 6.1
2017-Jun-11 16:22N 44°09' W 069°00'3 6.3
2017-Jun-11 15:50N 44°05' W 069°00'3 6.9
2017-Jun-11 15:27N 44°03' W 069°00'73 4.9
2017-Jun-11 00:34N 42°58' W 069°48'6 7.1
2017-Jun-10 23:45N 42°54' W 069°54'2 7.8
2017-Jun-10 23:31N 42°53' W 069°56'4 7.0
2017-Jun-10 23:00N 42°50' W 069°59'3 6.8
2017-Jun-10 22:31N 42°48' W 070°02'4 7.3
2017-Jun-10 22:01N 42°45' W 070°06'4 7.8
2017-Jun-10 21:30N 42°42' W 070°09'4 7.5
2017-Jun-10 21:00N 42°39' W 070°13'4 8.2
2017-Jun-10 20:31N 42°37' W 070°17'4 9.0
2017-Jun-10 20:01N 42°35' W 070°22'4 8.1
2017-Jun-10 19:30N 42°33' W 070°27'3 6.9
2017-Jun-10 19:01N 42°31' W 070°31'4 7.1
2017-Jun-10 18:30N 42°30' W 070°36'4 7.1
2017-Jun-10 18:00N 42°29' W 070°40'2 4.9
2017-Jun-10 17:31N 42°28' W 070°43'1 2.3
2017-Jun-10 17:00N 42°27' W 070°42'0 0.8
2017-Jun-10 16:31N 42°27' W 070°42'3 6.6
2017-Jun-10 16:01N 42°26' W 070°46'3 6.6
2017-Jun-10 15:30N 42°24' W 070°50'3 6.5
2017-Jun-10 15:00N 42°23' W 070°54'5 5.2
2017-Jun-10 14:01N 42°20' W 071°00'2 4.7
2017-Jun-10 13:30N 42°21' W 071°03'0 0.1
2017-Jun-10 12:59N 42°21' W 071°03'0 0.0
2017-Jun-10 12:26N 42°21' W 071°03'0 0.0
2017-Jun-10 11:59N 42°21' W 071°03'0 0.0
2017-Jun-10 11:26N 42°21' W 071°03'0 0.0
2017-Jun-10 10:56N 42°21' W 071°03'0 0.0
2017-Jun-10 10:29N 42°21' W 071°03'0 0.0
2017-Jun-10 09:59N 42°21' W 071°03'0 0.0
2017-Jun-10 09:29N 42°21' W 071°03'0 0.0
2017-Jun-10 08:56N 42°21' W 071°03'0 0.0
2017-Jun-10 08:29N 42°21' W 071°03'0 0.0
2017-Jun-10 07:59N 42°21' W 071°03'0 0.0
2017-Jun-10 07:26N 42°21' W 071°03'0 0.0
2017-Jun-10 06:59N 42°21' W 071°03'0 0.0
2017-Jun-10 06:29N 42°21' W 071°03'0 0.0
2017-Jun-10 05:52N 42°21' W 071°03'0 0.0
2017-Jun-10 05:25N 42°21' W 071°03'0 0.0
2017-Jun-10 04:58N 42°21' W 071°03'0 0.0
2017-Jun-10 04:25N 42°21' W 071°03'0 0.0
2017-Jun-10 03:58N 42°21' W 071°03'0 0.0
2017-Jun-10 03:28N 42°21' W 071°03'0 0.0
2017-Jun-10 02:58N 42°21' W 071°03'0 0.0
2017-Jun-10 02:28N 42°21' W 071°03'0 0.0
2017-Jun-10 01:58N 42°21' W 071°03'0 0.0
2017-Jun-10 01:28N 42°21' W 071°03'0 0.0
2017-Jun-10 00:58N 42°21' W 071°03'0 0.7
2017-Jun-10 00:30N 42°21' W 071°03'0 0.8
2017-Jun-10 00:00N 42°22' W 071°02'2 3.3
2017-Jun-09 23:30N 42°20' W 071°00'1 2.2
2017-Jun-09 23:00N 42°20' W 070°59'2 3.0
2017-Jun-09 22:30N 42°21' W 071°01'2 2.9
2017-Jun-09 21:56N 42°21' W 071°03'0 0.0
2017-Jun-09 21:26N 42°21' W 071°03'0 0.0
2017-Jun-09 20:56N 42°21' W 071°03'0 0.0
2017-Jun-09 20:29N 42°21' W 071°03'0 0.0
2017-Jun-09 19:59N 42°21' W 071°03'0 0.0
2017-Jun-09 19:26N 42°21' W 071°03'0 0.0
2017-Jun-09 18:56N 42°21' W 071°03'0 0.0
2017-Jun-09 18:29N 42°21' W 071°03'0 0.0
2017-Jun-09 17:59N 42°21' W 071°03'0 0.0
2017-Jun-09 17:29N 42°21' W 071°03'0 0.0
2017-Jun-09 16:59N 42°21' W 071°03'0 0.0
2017-Jun-09 16:29N 42°21' W 071°03'0 0.0
2017-Jun-09 15:59N 42°21' W 071°03'0 0.0
2017-Jun-09 15:26N 42°21' W 071°03'0 0.0
2017-Jun-09 14:56N 42°21' W 071°03'0 0.0
2017-Jun-09 14:26N 42°21' W 071°03'0 0.0
2017-Jun-09 13:26N 42°21' W 071°03'0 0.0
2017-Jun-09 12:59N 42°21' W 071°03'0 0.0
2017-Jun-09 12:29N 42°21' W 071°03'0 0.0
2017-Jun-09 11:59N 42°21' W 071°03'0 0.0
2017-Jun-09 11:29N 42°21' W 071°03'0 0.0
2017-Jun-09 10:59N 42°21' W 071°03'0 0.0
2017-Jun-09 10:29N 42°21' W 071°03'0 0.0
2017-Jun-09 09:59N 42°21' W 071°03'0 0.0
2017-Jun-09 09:26N 42°21' W 071°03'0 0.0
2017-Jun-09 08:59N 42°21' W 071°03'0 0.0
2017-Jun-09 08:29N 42°21' W 071°03'0 0.0
2017-Jun-09 07:59N 42°21' W 071°03'0 0.0
2017-Jun-09 07:26N 42°21' W 071°03'0 0.0
2017-Jun-09 06:59N 42°21' W 071°03'0 0.0
2017-Jun-09 06:29N 42°21' W 071°03'0 0.0
2017-Jun-09 05:59N 42°21' W 071°03'0 0.0
2017-Jun-09 05:28N 42°21' W 071°03'0 0.0
2017-Jun-09 04:58N 42°21' W 071°03'0 0.0
2017-Jun-09 04:25N 42°21' W 071°03'0 0.0
2017-Jun-09 03:58N 42°21' W 071°03'0 0.0
2017-Jun-09 03:28N 42°21' W 071°03'0 0.0
2017-Jun-09 02:58N 42°21' W 071°03'0 0.0
2017-Jun-09 02:28N 42°21' W 071°03'0 0.0
2017-Jun-09 01:58N 42°21' W 071°03'0 0.0
2017-Jun-09 01:28N 42°21' W 071°03'0 0.0
2017-Jun-09 00:55N 42°21' W 071°03'0 0.0
2017-Jun-09 00:28N 42°21' W 071°03'0 0.0
2017-Jun-08 23:55N 42°21' W 071°03'0 0.0
2017-Jun-08 23:25N 42°21' W 071°03'0 0.0
2017-Jun-08 22:58N 42°21' W 071°03'0 0.0
2017-Jun-08 22:28N 42°21' W 071°03'0 0.0
2017-Jun-08 21:58N 42°21' W 071°03'0 0.0
2017-Jun-08 21:25N 42°21' W 071°03'0 0.0
2017-Jun-08 20:55N 42°21' W 071°03'0 0.0
2017-Jun-08 20:28N 42°21' W 071°03'0 0.0
2017-Jun-08 19:58N 42°21' W 071°03'0 0.0
2017-Jun-08 19:28N 42°21' W 071°03'0 0.0
2017-Jun-08 18:55N 42°21' W 071°03'0 0.0
2017-Jun-08 18:25N 42°21' W 071°03'0 0.0
2017-Jun-08 17:58N 42°21' W 071°03'0 0.0
2017-Jun-08 17:28N 42°21' W 071°03'0 0.0
2017-Jun-08 16:58N 42°21' W 071°03'0 0.0
2017-Jun-08 16:19N 42°21' W 071°03'0 0.0
2017-Jun-08 15:58N 42°21' W 071°03'0 0.0
2017-Jun-08 15:28N 42°21' W 071°03'0 0.0
2017-Jun-08 14:55N 42°21' W 071°03'0 0.0
2017-Jun-08 14:28N 42°21' W 071°03'0 0.0
2017-Jun-08 13:28N 42°21' W 071°03'0 0.0
2017-Jun-08 12:55N 42°21' W 071°03'0 0.0
2017-Jun-08 12:25N 42°21' W 071°03'0 0.0
2017-Jun-08 11:55N 42°21' W 071°03'0 0.0
2017-Jun-08 11:28N 42°21' W 071°03'0 0.0
2017-Jun-08 10:55N 42°21' W 071°03'0 0.0
2017-Jun-08 10:28N 42°21' W 071°03'0 0.0
2017-Jun-08 09:55N 42°21' W 071°03'0 0.0
2017-Jun-08 09:28N 42°21' W 071°03'0 0.0
2017-Jun-08 08:58N 42°21' W 071°03'0 0.0
2017-Jun-08 08:25N 42°21' W 071°03'0 0.0
2017-Jun-08 07:55N 42°21' W 071°03'0 0.0
2017-Jun-08 07:22N 42°21' W 071°03'0 0.0
2017-Jun-08 06:58N 42°21' W 071°03'0 0.0
2017-Jun-08 06:25N 42°21' W 071°03'0 0.0
2017-Jun-08 05:58N 42°21' W 071°03'0 0.0
2017-Jun-08 05:28N 42°21' W 071°03'0 0.0
2017-Jun-08 04:58N 42°21' W 071°03'0 0.0
2017-Jun-08 04:28N 42°21' W 071°03'0 0.0
2017-Jun-08 03:58N 42°21' W 071°03'0 0.0
2017-Jun-08 03:25N 42°21' W 071°03'0 0.0
2017-Jun-08 02:55N 42°21' W 071°03'0 0.0
2017-Jun-08 02:28N 42°21' W 071°03'0 0.0
2017-Jun-08 01:58N 42°21' W 071°03'0 0.0
2017-Jun-08 01:25N 42°21' W 071°03'0 0.0
2017-Jun-08 00:55N 42°21' W 071°03'0 0.0
2017-Jun-08 00:28N 42°21' W 071°03'0 0.0
2017-Jun-07 23:58N 42°21' W 071°03'0 0.0
2017-Jun-07 23:28N 42°21' W 071°03'0 0.0
2017-Jun-07 22:58N 42°21' W 071°03'0 0.0
2017-Jun-07 22:28N 42°21' W 071°03'0 0.0
2017-Jun-07 22:01N 42°21' W 071°03'0 0.0
2017-Jun-07 21:25N 42°21' W 071°03'0 0.0
2017-Jun-07 21:00N 42°21' W 071°03'0 0.0
2017-Jun-07 20:30N 42°21' W 071°03'0 0.0
2017-Jun-07 20:00N 42°21' W 071°03'0 0.0
2017-Jun-07 19:30N 42°21' W 071°03'0 0.0
2017-Jun-07 19:00N 42°21' W 071°03'0 0.0
2017-Jun-07 18:30N 42°21' W 071°03'0 0.0
2017-Jun-07 18:00N 42°21' W 071°03'0 0.0
2017-Jun-07 17:30N 42°21' W 071°03'0 0.0
2017-Jun-07 17:00N 42°21' W 071°03'0 0.0
2017-Jun-07 16:30N 42°21' W 071°03'0 0.0
2017-Jun-07 16:00N 42°21' W 071°03'0 0.0
2017-Jun-07 15:30N 42°21' W 071°03'0 0.0
2017-Jun-07 15:00N 42°21' W 071°03'0 0.0
2017-Jun-07 14:00N 42°21' W 071°03'0 0.0
2017-Jun-07 13:30N 42°21' W 071°03'0 0.0
2017-Jun-07 13:00N 42°21' W 071°03'0 0.0
2017-Jun-07 12:30N 42°21' W 071°03'0 0.0
2017-Jun-07 12:00N 42°21' W 071°03'0 0.0
2017-Jun-07 11:30N 42°21' W 071°03'0 0.0
2017-Jun-07 11:00N 42°21' W 071°03'0 0.0
2017-Jun-07 10:30N 42°21' W 071°03'0 0.0
2017-Jun-07 10:00N 42°21' W 071°03'0 0.0
2017-Jun-07 09:30N 42°21' W 071°03'0 0.0
2017-Jun-07 09:00N 42°21' W 071°03'0 0.0
2017-Jun-07 08:30N 42°21' W 071°03'0 0.0
2017-Jun-07 08:00N 42°21' W 071°03'0 0.0
2017-Jun-07 07:30N 42°21' W 071°03'0 0.0
2017-Jun-07 07:00N 42°21' W 071°03'0 0.0
2017-Jun-07 06:24N 42°21' W 071°03'0 0.0
2017-Jun-07 06:00N 42°21' W 071°03'0 0.0
2017-Jun-07 05:30N 42°21' W 071°03'0 0.0
2017-Jun-07 05:00N 42°21' W 071°03'0 0.0
2017-Jun-07 04:30N 42°21' W 071°03'0 0.0
2017-Jun-07 04:00N 42°21' W 071°03'0 0.0
2017-Jun-07 03:30N 42°21' W 071°03'0 0.0
2017-Jun-07 03:00N 42°21' W 071°03'0 0.0
2017-Jun-07 02:30N 42°21' W 071°03'0 0.0
2017-Jun-07 02:00N 42°21' W 071°03'0 0.0
2017-Jun-07 01:30N 42°21' W 071°03'0 0.0
2017-Jun-07 01:00N 42°21' W 071°03'0 0.0
2017-Jun-07 00:30N 42°21' W 071°03'0 0.0
2017-Jun-07 00:00N 42°21' W 071°03'0 0.0
2017-Jun-06 23:30N 42°21' W 071°03'0 0.0
2017-Jun-06 23:00N 42°21' W 071°03'0 0.0
2017-Jun-06 22:30N 42°21' W 071°03'0 0.0
2017-Jun-06 22:00N 42°21' W 071°03'0 0.0
2017-Jun-06 21:30N 42°21' W 071°03'0 0.0
2017-Jun-06 21:00N 42°21' W 071°03'0 0.0
2017-Jun-06 20:30N 42°21' W 071°03'0 0.0
2017-Jun-06 19:57N 42°21' W 071°03'0 0.0
2017-Jun-06 19:30N 42°21' W 071°03'0 0.0
2017-Jun-06 19:00N 42°21' W 071°03'0 0.0
2017-Jun-06 18:30N 42°21' W 071°03'0 0.0
2017-Jun-06 18:00N 42°21' W 071°03'0 0.0
2017-Jun-06 17:30N 42°21' W 071°03'0 0.0
2017-Jun-06 17:00N 42°21' W 071°03'0 0.0
2017-Jun-06 16:30N 42°21' W 071°03'0 0.0
2017-Jun-06 16:00N 42°21' W 071°03'0 0.0
2017-Jun-06 15:30N 42°21' W 071°03'0 0.0
2017-Jun-06 15:00N 42°21' W 071°03'0 0.0
2017-Jun-06 14:30N 42°21' W 071°03'0 0.0
2017-Jun-06 13:27N 42°21' W 071°03'0 0.0
2017-Jun-06 13:00N 42°21' W 071°03'0 0.0
2017-Jun-06 12:29N 42°21' W 071°03'0 0.0
2017-Jun-06 11:53N 42°21' W 071°03'0 0.0
2017-Jun-06 11:29N 42°21' W 071°03'0 0.0
2017-Jun-06 10:59N 42°21' W 071°03'0 0.0
2017-Jun-06 10:29N 42°21' W 071°03'0 0.0
2017-Jun-06 09:59N 42°21' W 071°03'0 0.0
2017-Jun-06 09:29N 42°21' W 071°03'0 0.0
2017-Jun-06 08:59N 42°21' W 071°03'0 0.0
2017-Jun-06 08:26N 42°21' W 071°03'0 0.0
2017-Jun-06 07:59N 42°21' W 071°03'0 0.0
2017-Jun-06 07:29N 42°21' W 071°03'0 0.0
2017-Jun-06 06:56N 42°21' W 071°03'0 0.0
2017-Jun-06 06:29N 42°21' W 071°03'0 0.0
2017-Jun-06 05:50N 42°21' W 071°03'0 0.0
2017-Jun-06 05:29N 42°21' W 071°03'0 0.0
2017-Jun-06 04:56N 42°21' W 071°03'0 0.0
2017-Jun-06 04:29N 42°21' W 071°03'0 0.0
2017-Jun-06 03:59N 42°21' W 071°03'0 0.3
2017-Jun-06 03:30N 42°21' W 071°03'1 1.2
2017-Jun-06 03:00N 42°21' W 071°02'3 5.5
2017-Jun-06 02:30N 42°20' W 070°59'3 6.2
2017-Jun-06 02:00N 42°22' W 070°55'3 5.3
2017-Jun-06 01:30N 42°23' W 070°52'3 6.3
2017-Jun-06 01:00N 42°22' W 070°48'4 7.5
2017-Jun-06 00:31N 42°20' W 070°44'4 8.2
2017-Jun-06 00:00N 42°17' W 070°40'4 8.0
2017-Jun-05 23:30N 42°15' W 070°36'4 7.4
2017-Jun-05 23:00N 42°11' W 070°33'4 7.9
2017-Jun-05 22:30N 42°08' W 070°31'  
Track history (hours):
 
Tides and Currents Weather Stations Pressure Air Temp Water Temp Dewpoint Dewpoint Depression Visibility Wind Speed Wind Dir Waves Ship Positions

Oceanographic research ship Corwith Cramer (USA)

Ship's website: http://www.sea.edu/sea2000/AboutSEA2000/cramer.htm

Detailed information on ship capabilities available from University of Delaware's Ocean Information Center.

Owner: SEA EDUCATION ASSOCIATION, WOODS HOLE, MA. More information available from US FCC via Universal Licensing System and Coast Guard Vessel Documentation Center.

Last reported at 2017-Jun-11 17:22 UTC. Time now 2017-Jul-23 16:28 UTC.
Position N 44°15' W 068°59'.
Warning: this ship's position is 41 days out of date.

Type: Sailing vessel. MMSI: 366724450.

Date/timePositionNaut miles runAvg speedWind from/ knotsBaromVisibWave heightAir tempDewpointWater temp
2017-Jun-11 17:22N 44°15' W 068°59'5 7.1
2017-Jun-11 16:36N 44°10' W 069°00'1 6.1
2017-Jun-11 16:22N 44°09' W 069°00'3 6.3
2017-Jun-11 15:50N 44°05' W 069°00'3 6.9
2017-Jun-11 15:27N 44°03' W 069°00'73 4.9
2017-Jun-11 00:34N 42°58' W 069°48'6 7.1
2017-Jun-10 23:45N 42°54' W 069°54'2 7.8
2017-Jun-10 23:31N 42°53' W 069°56'4 7.0
2017-Jun-10 23:00N 42°50' W 069°59'3 6.8
2017-Jun-10 22:31N 42°48' W 070°02'4 7.3
2017-Jun-10 22:01N 42°45' W 070°06'4 7.8
2017-Jun-10 21:30N 42°42' W 070°09'4 7.5
2017-Jun-10 21:00N 42°39' W 070°13'4 8.2
2017-Jun-10 20:31N 42°37' W 070°17'4 9.0
2017-Jun-10 20:01N 42°35' W 070°22'4 8.1
2017-Jun-10 19:30N 42°33' W 070°27'3 6.9
2017-Jun-10 19:01N 42°31' W 070°31'4 7.1
2017-Jun-10 18:30N 42°30' W 070°36'4 7.1
2017-Jun-10 18:00N 42°29' W 070°40'2 4.9
2017-Jun-10 17:31N 42°28' W 070°43'1 2.3
2017-Jun-10 17:00N 42°27' W 070°42'0 0.8
2017-Jun-10 16:31N 42°27' W 070°42'3 6.6
2017-Jun-10 16:01N 42°26' W 070°46'3 6.6
2017-Jun-10 15:30N 42°24' W 070°50'3 6.5
2017-Jun-10 15:00N 42°23' W 070°54'5 5.2
2017-Jun-10 14:01N 42°20' W 071°00'2 4.7
2017-Jun-10 13:30N 42°21' W 071°03'0 0.1
2017-Jun-10 12:59N 42°21' W 071°03'0 0.0
2017-Jun-10 12:26N 42°21' W 071°03'0 0.0
2017-Jun-10 11:59N 42°21' W 071°03'0 0.0
2017-Jun-10 11:26N 42°21' W 071°03'0 0.0
2017-Jun-10 10:56N 42°21' W 071°03'0 0.0
2017-Jun-10 10:29N 42°21' W 071°03'0 0.0
2017-Jun-10 09:59N 42°21' W 071°03'0 0.0
2017-Jun-10 09:29N 42°21' W 071°03'0 0.0
2017-Jun-10 08:56N 42°21' W 071°03'0 0.0
2017-Jun-10 08:29N 42°21' W 071°03'0 0.0
2017-Jun-10 07:59N 42°21' W 071°03'0 0.0
2017-Jun-10 07:26N 42°21' W 071°03'0 0.0
2017-Jun-10 06:59N 42°21' W 071°03'0 0.0
2017-Jun-10 06:29N 42°21' W 071°03'0 0.0
2017-Jun-10 05:52N 42°21' W 071°03'0 0.0
2017-Jun-10 05:25N 42°21' W 071°03'0 0.0
2017-Jun-10 04:58N 42°21' W 071°03'0 0.0
2017-Jun-10 04:25N 42°21' W 071°03'0 0.0
2017-Jun-10 03:58N 42°21' W 071°03'0 0.0
2017-Jun-10 03:28N 42°21' W 071°03'0 0.0
2017-Jun-10 02:58N 42°21' W 071°03'0 0.0
2017-Jun-10 02:28N 42°21' W 071°03'0 0.0
2017-Jun-10 01:58N 42°21' W 071°03'0 0.0
2017-Jun-10 01:28N 42°21' W 071°03'0 0.0
2017-Jun-10 00:58N 42°21' W 071°03'0 0.7
2017-Jun-10 00:30N 42°21' W 071°03'0 0.8
2017-Jun-10 00:00N 42°22' W 071°02'2 3.3
2017-Jun-09 23:30N 42°20' W 071°00'1 2.2
2017-Jun-09 23:00N 42°20' W 070°59'2 3.0
2017-Jun-09 22:30N 42°21' W 071°01'2 2.9
2017-Jun-09 21:56N 42°21' W 071°03'0 0.0
2017-Jun-09 21:26N 42°21' W 071°03'0 0.0
2017-Jun-09 20:56N 42°21' W 071°03'0 0.0
2017-Jun-09 20:29N 42°21' W 071°03'0 0.0
2017-Jun-09 19:59N 42°21' W 071°03'0 0.0
2017-Jun-09 19:26N 42°21' W 071°03'0 0.0
2017-Jun-09 18:56N 42°21' W 071°03'0 0.0
2017-Jun-09 18:29N 42°21' W 071°03'0 0.0
2017-Jun-09 17:59N 42°21' W 071°03'0 0.0
2017-Jun-09 17:29N 42°21' W 071°03'0 0.0
2017-Jun-09 16:59N 42°21' W 071°03'0 0.0
2017-Jun-09 16:29N 42°21' W 071°03'0 0.0
2017-Jun-09 15:59N 42°21' W 071°03'0 0.0
2017-Jun-09 15:26N 42°21' W 071°03'0 0.0
2017-Jun-09 14:56N 42°21' W 071°03'0 0.0
2017-Jun-09 14:26N 42°21' W 071°03'0 0.0
2017-Jun-09 13:26N 42°21' W 071°03'0 0.0
2017-Jun-09 12:59N 42°21' W 071°03'0 0.0
2017-Jun-09 12:29N 42°21' W 071°03'0 0.0
2017-Jun-09 11:59N 42°21' W 071°03'0 0.0
2017-Jun-09 11:29N 42°21' W 071°03'0 0.0
2017-Jun-09 10:59N 42°21' W 071°03'0 0.0
2017-Jun-09 10:29N 42°21' W 071°03'0 0.0
2017-Jun-09 09:59N 42°21' W 071°03'0 0.0
2017-Jun-09 09:26N 42°21' W 071°03'0 0.0
2017-Jun-09 08:59N 42°21' W 071°03'0 0.0
2017-Jun-09 08:29N 42°21' W 071°03'0 0.0
2017-Jun-09 07:59N 42°21' W 071°03'0 0.0
2017-Jun-09 07:26N 42°21' W 071°03'0 0.0
2017-Jun-09 06:59N 42°21' W 071°03'0 0.0
2017-Jun-09 06:29N 42°21' W 071°03'0 0.0
2017-Jun-09 05:59N 42°21' W 071°03'0 0.0
2017-Jun-09 05:28N 42°21' W 071°03'0 0.0
2017-Jun-09 04:58N 42°21' W 071°03'0 0.0
2017-Jun-09 04:25N 42°21' W 071°03'0 0.0
2017-Jun-09 03:58N 42°21' W 071°03'0 0.0
2017-Jun-09 03:28N 42°21' W 071°03'0 0.0
2017-Jun-09 02:58N 42°21' W 071°03'0 0.0
2017-Jun-09 02:28N 42°21' W 071°03'0 0.0
2017-Jun-09 01:58N 42°21' W 071°03'0 0.0
2017-Jun-09 01:28N 42°21' W 071°03'0 0.0
2017-Jun-09 00:55N 42°21' W 071°03'0 0.0
2017-Jun-09 00:28N 42°21' W 071°03'0 0.0
2017-Jun-08 23:55N 42°21' W 071°03'0 0.0
2017-Jun-08 23:25N 42°21' W 071°03'0 0.0
2017-Jun-08 22:58N 42°21' W 071°03'0 0.0
2017-Jun-08 22:28N 42°21' W 071°03'0 0.0
2017-Jun-08 21:58N 42°21' W 071°03'0 0.0
2017-Jun-08 21:25N 42°21' W 071°03'0 0.0
2017-Jun-08 20:55N 42°21' W 071°03'0 0.0
2017-Jun-08 20:28N 42°21' W 071°03'0 0.0
2017-Jun-08 19:58N 42°21' W 071°03'0 0.0
2017-Jun-08 19:28N 42°21' W 071°03'0 0.0
2017-Jun-08 18:55N 42°21' W 071°03'0 0.0
2017-Jun-08 18:25N 42°21' W 071°03'0 0.0
2017-Jun-08 17:58N 42°21' W 071°03'0 0.0
2017-Jun-08 17:28N 42°21' W 071°03'0 0.0
2017-Jun-08 16:58N 42°21' W 071°03'0 0.0
2017-Jun-08 16:19N 42°21' W 071°03'0 0.0
2017-Jun-08 15:58N 42°21' W 071°03'0 0.0
2017-Jun-08 15:28N 42°21' W 071°03'0 0.0
2017-Jun-08 14:55N 42°21' W 071°03'0 0.0
2017-Jun-08 14:28N 42°21' W 071°03'0 0.0
2017-Jun-08 13:28N 42°21' W 071°03'0 0.0
2017-Jun-08 12:55N 42°21' W 071°03'0 0.0
2017-Jun-08 12:25N 42°21' W 071°03'0 0.0
2017-Jun-08 11:55N 42°21' W 071°03'0 0.0
2017-Jun-08 11:28N 42°21' W 071°03'0 0.0
2017-Jun-08 10:55N 42°21' W 071°03'0 0.0
2017-Jun-08 10:28N 42°21' W 071°03'0 0.0
2017-Jun-08 09:55N 42°21' W 071°03'0 0.0
2017-Jun-08 09:28N 42°21' W 071°03'0 0.0
2017-Jun-08 08:58N 42°21' W 071°03'0 0.0
2017-Jun-08 08:25N 42°21' W 071°03'0 0.0
2017-Jun-08 07:55N 42°21' W 071°03'0 0.0
2017-Jun-08 07:22N 42°21' W 071°03'0 0.0
2017-Jun-08 06:58N 42°21' W 071°03'0 0.0
2017-Jun-08 06:25N 42°21' W 071°03'0 0.0
2017-Jun-08 05:58N 42°21' W 071°03'0 0.0
2017-Jun-08 05:28N 42°21' W 071°03'0 0.0
2017-Jun-08 04:58N 42°21' W 071°03'0 0.0
2017-Jun-08 04:28N 42°21' W 071°03'0 0.0
2017-Jun-08 03:58N 42°21' W 071°03'0 0.0
2017-Jun-08 03:25N 42°21' W 071°03'0 0.0
2017-Jun-08 02:55N 42°21' W 071°03'0 0.0
2017-Jun-08 02:28N 42°21' W 071°03'0 0.0
2017-Jun-08 01:58N 42°21' W 071°03'0 0.0
2017-Jun-08 01:25N 42°21' W 071°03'0 0.0
2017-Jun-08 00:55N 42°21' W 071°03'0 0.0
2017-Jun-08 00:28N 42°21' W 071°03'0 0.0
2017-Jun-07 23:58N 42°21' W 071°03'0 0.0
2017-Jun-07 23:28N 42°21' W 071°03'0 0.0
2017-Jun-07 22:58N 42°21' W 071°03'0 0.0
2017-Jun-07 22:28N 42°21' W 071°03'0 0.0
2017-Jun-07 22:01N 42°21' W 071°03'0 0.0
2017-Jun-07 21:25N 42°21' W 071°03'0 0.0
2017-Jun-07 21:00N 42°21' W 071°03'0 0.0
2017-Jun-07 20:30N 42°21' W 071°03'0 0.0
2017-Jun-07 20:00N 42°21' W 071°03'0 0.0
2017-Jun-07 19:30N 42°21' W 071°03'0 0.0
2017-Jun-07 19:00N 42°21' W 071°03'0 0.0
2017-Jun-07 18:30N 42°21' W 071°03'0 0.0
2017-Jun-07 18:00N 42°21' W 071°03'0 0.0
2017-Jun-07 17:30N 42°21' W 071°03'0 0.0
2017-Jun-07 17:00N 42°21' W 071°03'0 0.0
2017-Jun-07 16:30N 42°21' W 071°03'0 0.0
2017-Jun-07 16:00N 42°21' W 071°03'0 0.0
2017-Jun-07 15:30N 42°21' W 071°03'0 0.0
2017-Jun-07 15:00N 42°21' W 071°03'0 0.0
2017-Jun-07 14:00N 42°21' W 071°03'0 0.0
2017-Jun-07 13:30N 42°21' W 071°03'0 0.0
2017-Jun-07 13:00N 42°21' W 071°03'0 0.0
2017-Jun-07 12:30N 42°21' W 071°03'0 0.0
2017-Jun-07 12:00N 42°21' W 071°03'0 0.0
2017-Jun-07 11:30N 42°21' W 071°03'0 0.0
2017-Jun-07 11:00N 42°21' W 071°03'0 0.0
2017-Jun-07 10:30N 42°21' W 071°03'0 0.0
2017-Jun-07 10:00N 42°21' W 071°03'0 0.0
2017-Jun-07 09:30N 42°21' W 071°03'0 0.0
2017-Jun-07 09:00N 42°21' W 071°03'0 0.0
2017-Jun-07 08:30N 42°21' W 071°03'0 0.0
2017-Jun-07 08:00N 42°21' W 071°03'0 0.0
2017-Jun-07 07:30N 42°21' W 071°03'0 0.0
2017-Jun-07 07:00N 42°21' W 071°03'0 0.0
2017-Jun-07 06:24N 42°21' W 071°03'0 0.0
2017-Jun-07 06:00N 42°21' W 071°03'0 0.0
2017-Jun-07 05:30N 42°21' W 071°03'0 0.0
2017-Jun-07 05:00N 42°21' W 071°03'0 0.0
2017-Jun-07 04:30N 42°21' W 071°03'0 0.0
2017-Jun-07 04:00N 42°21' W 071°03'0 0.0
2017-Jun-07 03:30N 42°21' W 071°03'0 0.0
2017-Jun-07 03:00N 42°21' W 071°03'0 0.0
2017-Jun-07 02:30N 42°21' W 071°03'0 0.0
2017-Jun-07 02:00N 42°21' W 071°03'0 0.0
2017-Jun-07 01:30N 42°21' W 071°03'0 0.0
2017-Jun-07 01:00N 42°21' W 071°03'0 0.0
2017-Jun-07 00:30N 42°21' W 071°03'0 0.0
2017-Jun-07 00:00N 42°21' W 071°03'0 0.0
2017-Jun-06 23:30N 42°21' W 071°03'0 0.0
2017-Jun-06 23:00N 42°21' W 071°03'0 0.0
2017-Jun-06 22:30N 42°21' W 071°03'0 0.0
2017-Jun-06 22:00N 42°21' W 071°03'0 0.0
2017-Jun-06 21:30N 42°21' W 071°03'0 0.0
2017-Jun-06 21:00N 42°21' W 071°03'0 0.0
2017-Jun-06 20:30N 42°21' W 071°03'0 0.0
2017-Jun-06 19:57N 42°21' W 071°03'0 0.0
2017-Jun-06 19:30N 42°21' W 071°03'0 0.0
2017-Jun-06 19:00N 42°21' W 071°03'0 0.0
2017-Jun-06 18:30N 42°21' W 071°03'0 0.0
2017-Jun-06 18:00N 42°21' W 071°03'0 0.0
2017-Jun-06 17:30N 42°21' W 071°03'0 0.0
2017-Jun-06 17:00N 42°21' W 071°03'0 0.0
2017-Jun-06 16:30N 42°21' W 071°03'0 0.0
2017-Jun-06 16:00N 42°21' W 071°03'0 0.0
2017-Jun-06 15:30N 42°21' W 071°03'0 0.0
2017-Jun-06 15:00N 42°21' W 071°03'0 0.0
2017-Jun-06 14:30N 42°21' W 071°03'0 0.0
2017-Jun-06 13:27N 42°21' W 071°03'0 0.0
2017-Jun-06 13:00N 42°21' W 071°03'0 0.0
2017-Jun-06 12:29N 42°21' W 071°03'0 0.0
2017-Jun-06 11:53N 42°21' W 071°03'0 0.0
2017-Jun-06 11:29N 42°21' W 071°03'0 0.0
2017-Jun-06 10:59N 42°21' W 071°03'0 0.0
2017-Jun-06 10:29N 42°21' W 071°03'0 0.0
2017-Jun-06 09:59N 42°21' W 071°03'0 0.0
2017-Jun-06 09:29N 42°21' W 071°03'0 0.0
2017-Jun-06 08:59N 42°21' W 071°03'0 0.0
2017-Jun-06 08:26N 42°21' W 071°03'0 0.0
2017-Jun-06 07:59N 42°21' W 071°03'0 0.0
2017-Jun-06 07:29N 42°21' W 071°03'0 0.0
2017-Jun-06 06:56N 42°21' W 071°03'0 0.0
2017-Jun-06 06:29N 42°21' W 071°03'0 0.0
2017-Jun-06 05:50N 42°21' W 071°03'0 0.0
2017-Jun-06 05:29N 42°21' W 071°03'0 0.0
2017-Jun-06 04:56N 42°21' W 071°03'0 0.0
2017-Jun-06 04:29N 42°21' W 071°03'0 0.0
2017-Jun-06 03:59N 42°21' W 071°03'0 0.3
2017-Jun-06 03:30N 42°21' W 071°03'1 1.2
2017-Jun-06 03:00N 42°21' W 071°02'3 5.5
2017-Jun-06 02:30N 42°20' W 070°59'3 6.2
2017-Jun-06 02:00N 42°22' W 070°55'3 5.3
2017-Jun-06 01:30N 42°23' W 070°52'3 6.3
2017-Jun-06 01:00N 42°22' W 070°48'4 7.5
2017-Jun-06 00:31N 42°20' W 070°44'4 8.2
2017-Jun-06 00:00N 42°17' W 070°40'4 8.0
2017-Jun-05 23:30N 42°15' W 070°36'4 7.4
2017-Jun-05 23:00N 42°11' W 070°33'4 7.9
2017-Jun-05 22:30N 42°08' W 070°31'  

Dump ship's entire track history